createdAt,value
2018-05-24T00:01:21.273Z,73.90
2018-05-24T00:03:51.730Z,73.80
2018-05-24T00:06:21.339Z,73.80
2018-05-24T00:08:51.033Z,74.00
2018-05-24T00:11:20.805Z,74.00
2018-05-24T00:13:50.457Z,74.00
2018-05-24T00:16:20.190Z,73.80
2018-05-24T00:18:49.976Z,73.80
2018-05-24T00:21:20.596Z,73.40
2018-05-24T00:23:50.395Z,73.40
2018-05-24T00:26:20.992Z,73.30
2018-05-24T00:28:50.653Z,73.30
2018-05-24T00:31:20.484Z,73.30
2018-05-24T00:33:50.118Z,73.30
2018-05-24T00:36:19.917Z,73.20
2018-05-24T00:38:49.695Z,73.20
2018-05-24T00:41:19.605Z,73.20
2018-05-24T00:43:49.243Z,73.20
2018-05-24T00:46:18.870Z,73.20
2018-05-24T00:48:49.412Z,73.60
2018-05-24T00:51:19.256Z,73.60
2018-05-24T00:53:48.976Z,73.70
2018-05-24T00:56:18.812Z,73.80
2018-05-24T00:58:48.774Z,73.70
2018-05-24T01:01:19.212Z,74.10
2018-05-24T01:03:48.905Z,74.10
2018-05-24T01:06:19.390Z,74.80
2018-05-24T01:08:49.203Z,74.30
2018-05-24T01:11:19.332Z,74.50
2018-05-24T01:13:49.932Z,74.50
2018-05-24T01:16:19.717Z,74.40
2018-05-24T01:18:50.117Z,74.50
2018-05-24T01:21:19.955Z,74.50
2018-05-24T01:23:50.573Z,74.50
2018-05-24T01:26:21.151Z,74.40
2018-05-24T01:28:50.815Z,74.40
2018-05-24T01:31:20.464Z,74.50
2018-05-24T01:33:50.147Z,74.20
2018-05-24T01:36:21.065Z,74.00
2018-05-24T01:38:51.527Z,74.00
2018-05-24T01:41:21.313Z,73.80
2018-05-24T01:43:50.964Z,73.80
2018-05-24T01:46:20.610Z,73.60
2018-05-24T01:48:50.319Z,73.40
2018-05-24T01:51:19.985Z,74.00
2018-05-24T01:53:49.750Z,73.10
2018-05-24T01:56:19.538Z,72.60
2018-05-24T01:58:49.232Z,72.30
2018-05-24T02:01:18.917Z,71.80
2018-05-24T02:03:48.922Z,71.40
2018-05-24T02:06:18.660Z,71.00
2018-05-24T02:08:48.406Z,70.50
2018-05-24T02:11:18.298Z,70.10
2018-05-24T02:13:48.885Z,69.00
2018-05-24T02:16:19.315Z,68.40
2018-05-24T02:18:49.806Z,68.10
2018-05-24T02:21:19.508Z,68.00
2018-05-24T02:23:49.268Z,67.70
2018-05-24T02:26:19.039Z,67.60
2018-05-24T02:28:49.590Z,67.30
2018-05-24T02:31:20.147Z,66.90
2018-05-24T02:33:49.897Z,66.90
2018-05-24T02:36:19.699Z,66.30
2018-05-24T02:38:49.498Z,66.80
2018-05-24T02:41:19.420Z,67.00
2018-05-24T02:43:49.184Z,67.00
2018-05-24T02:46:19.722Z,66.60
2018-05-24T02:48:49.496Z,66.60
2018-05-24T02:51:19.279Z,65.80
2018-05-24T02:53:49.085Z,66.40
2018-05-24T02:56:18.841Z,65.50
2018-05-24T02:58:49.408Z,64.60
2018-05-24T03:01:19.149Z,64.50
2018-05-24T03:03:48.917Z,64.00
2018-05-24T03:06:18.698Z,62.90
2018-05-24T03:08:49.214Z,61.80
2018-05-24T03:11:19.002Z,61.80
2018-05-24T03:13:48.786Z,61.50
2018-05-24T03:18:58.173Z,61.20
2018-05-24T03:21:28.287Z,60.90
2018-05-24T03:23:59.502Z,61.80
2018-05-24T03:26:29.611Z,61.80
2018-05-24T03:28:59.506Z,61.80
2018-05-24T03:31:29.607Z,61.70
2018-05-24T03:33:59.711Z,61.50
2018-05-24T03:36:29.509Z,61.30
2018-05-24T03:38:59.192Z,61.20
2018-05-24T03:41:28.866Z,61.50
2018-05-24T03:43:58.763Z,61.00
2018-05-24T03:46:28.816Z,59.90
2018-05-24T03:48:58.643Z,59.60
2018-05-24T03:51:28.446Z,59.50
2018-05-24T03:53:59.060Z,59.50
2018-05-24T03:56:29.598Z,58.60
2018-05-24T03:59:10.773Z,58.90
2018-05-24T04:01:52.413Z,58.10
2018-05-24T04:04:34.474Z,58.10
2018-05-24T04:07:04.914Z,57.60
2018-05-24T04:09:34.706Z,57.50
2018-05-24T04:12:05.143Z,57.20
2018-05-24T04:14:35.582Z,57.50
2018-05-24T04:17:05.223Z,57.40
2018-05-24T04:19:35.065Z,57.30
2018-05-24T04:22:04.710Z,56.50
2018-05-24T04:24:34.392Z,56.00
2018-05-24T04:27:05.337Z,54.80
2018-05-24T04:29:35.032Z,54.70
2018-05-24T04:32:05.049Z,54.20
2018-05-24T04:34:34.694Z,53.80
2018-05-24T04:37:04.450Z,53.40
2018-05-24T04:39:34.193Z,53.60
2018-05-24T04:42:04.761Z,53.40
2018-05-24T04:44:34.521Z,53.30
2018-05-24T04:47:04.363Z,53.80
2018-05-24T04:49:34.087Z,53.80
2018-05-24T04:52:03.735Z,54.20
2018-05-24T04:54:33.558Z,54.20
2018-05-24T04:57:03.740Z,54.20
2018-05-24T04:59:33.630Z,54.60
2018-05-24T05:02:04.370Z,55.60
2018-05-24T05:04:34.290Z,55.60
2018-05-24T05:07:03.930Z,55.90
2018-05-24T05:09:33.827Z,56.30
2018-05-24T05:12:03.689Z,56.20
2018-05-24T05:14:34.322Z,56.60
2018-05-24T05:17:04.191Z,57.20
2018-05-24T05:19:34.244Z,56.90
2018-05-24T05:22:04.088Z,57.00
2018-05-24T05:24:33.987Z,57.00
2018-05-24T05:27:03.688Z,57.20
2018-05-24T05:29:34.260Z,57.40
2018-05-24T05:32:05.021Z,57.40
2018-05-24T05:34:34.728Z,57.50
2018-05-24T05:37:04.688Z,57.30
2018-05-24T05:39:34.434Z,57.40
2018-05-24T05:42:04.136Z,57.90
2018-05-24T05:44:33.763Z,58.40
2018-05-24T05:47:03.587Z,58.90
2018-05-24T05:49:33.378Z,58.80
2018-05-24T05:52:03.213Z,58.90
2018-05-24T05:54:33.105Z,58.90
2018-05-24T05:57:02.972Z,59.20
2018-05-24T05:59:32.799Z,59.00
2018-05-24T06:02:02.624Z,59.60
2018-05-24T06:04:32.439Z,59.40
2018-05-24T06:07:02.360Z,59.10
2018-05-24T06:09:32.175Z,59.00
2018-05-24T06:12:02.187Z,58.90
2018-05-24T06:14:32.043Z,59.20
2018-05-24T06:17:01.829Z,59.50
2018-05-24T06:19:31.777Z,59.70
2018-05-24T06:22:01.511Z,59.70
2018-05-24T06:24:31.445Z,59.00
2018-05-24T06:27:01.406Z,59.30
2018-05-24T06:29:31.492Z,59.60
2018-05-24T06:32:01.283Z,59.40
2018-05-24T06:34:31.920Z,59.20
2018-05-24T06:37:01.693Z,59.00
2018-05-24T06:39:31.466Z,58.90
2018-05-24T06:42:02.031Z,57.90
2018-05-24T06:44:31.665Z,57.90
2018-05-24T06:47:01.474Z,57.70
2018-05-24T06:49:31.900Z,57.70
2018-05-24T06:52:02.393Z,57.70
2018-05-24T06:54:32.083Z,57.70
2018-05-24T06:57:01.773Z,58.10
2018-05-24T06:59:31.668Z,58.00
2018-05-24T07:02:01.969Z,57.60
2018-05-24T07:04:34.382Z,58.20
2018-05-24T07:07:04.721Z,58.10
2018-05-24T07:09:36.219Z,57.80
2018-05-24T07:12:06.790Z,57.40
2018-05-24T07:14:37.091Z,57.30
2018-05-24T07:17:09.887Z,57.70
2018-05-24T07:19:40.325Z,57.60
2018-05-24T07:22:10.838Z,57.50
2018-05-24T07:24:41.354Z,57.70
2018-05-24T07:27:11.854Z,57.30
2018-05-24T07:29:42.493Z,57.70
2018-05-24T07:32:13.713Z,58.50
2018-05-24T07:34:44.129Z,58.50
2018-05-24T07:37:15.544Z,58.90
2018-05-24T07:39:46.256Z,58.90
2018-05-24T07:42:18.214Z,58.70
2018-05-24T07:44:48.570Z,58.70
2018-05-24T07:47:19.135Z,59.10
2018-05-24T07:49:49.663Z,59.30
2018-05-24T07:52:20.141Z,59.40
2018-05-24T07:54:51.461Z,59.50
2018-05-24T07:57:22.027Z,59.50
2018-05-24T07:59:53.203Z,59.70
2018-05-24T08:02:23.483Z,59.60
2018-05-24T08:04:55.012Z,59.50
2018-05-24T08:07:26.253Z,59.20
2018-05-24T08:09:56.216Z,59.20
2018-05-24T08:12:25.996Z,59.30
2018-05-24T08:14:56.411Z,59.70
2018-05-24T08:17:26.256Z,59.60
2018-05-24T08:19:56.832Z,60.00
2018-05-24T08:22:27.232Z,59.90
2018-05-24T08:24:57.492Z,57.90
2018-05-24T08:27:27.458Z,58.50
2018-05-24T08:29:57.110Z,58.30
2018-05-24T08:32:27.437Z,58.00
2018-05-24T08:34:58.066Z,57.50
2018-05-24T08:37:27.929Z,56.80
2018-05-24T08:39:58.115Z,56.50
2018-05-24T08:42:28.368Z,56.50
2018-05-24T08:44:59.516Z,56.20
2018-05-24T08:47:29.952Z,56.20
2018-05-24T08:49:59.966Z,56.40
2018-05-24T08:52:30.408Z,56.50
2018-05-24T08:55:00.270Z,56.60
2018-05-24T08:57:31.283Z,56.30
2018-05-24T09:00:00.991Z,56.30
2018-05-24T09:02:30.777Z,56.30
2018-05-24T09:05:00.542Z,56.70
2018-05-24T09:07:30.795Z,56.90
2018-05-24T09:10:01.433Z,56.90
2018-05-24T09:12:31.216Z,56.90
2018-05-24T09:15:00.984Z,57.20
2018-05-24T09:17:31.565Z,57.20
2018-05-24T09:20:01.298Z,57.40
2018-05-24T09:22:31.053Z,57.50
2018-05-24T09:25:00.817Z,57.30
2018-05-24T09:27:30.589Z,58.00
2018-05-24T09:30:01.127Z,58.60
2018-05-24T09:32:31.673Z,58.40
2018-05-24T09:35:02.348Z,58.40
2018-05-24T09:37:32.113Z,58.40
2018-05-24T09:40:01.869Z,59.20
2018-05-24T09:42:31.658Z,60.10
2018-05-24T09:45:01.442Z,59.60
2018-05-24T09:47:31.966Z,62.30
2018-05-24T09:50:02.535Z,62.80
2018-05-24T09:52:32.282Z,62.80
2018-05-24T09:55:02.051Z,63.30
2018-05-24T09:57:31.841Z,64.30
2018-05-24T10:00:02.095Z,64.40
2018-05-24T10:02:31.712Z,64.90
2018-05-24T10:05:01.501Z,65.30
2018-05-24T10:07:31.276Z,65.70
2018-05-24T10:10:01.676Z,66.40
2018-05-24T10:12:31.536Z,66.40
2018-05-24T10:15:01.293Z,67.20
2018-05-24T10:17:30.956Z,67.90
2018-05-24T10:20:00.732Z,68.10
2018-05-24T10:22:30.477Z,68.30
2018-05-24T10:25:00.249Z,69.10
2018-05-24T10:27:30.031Z,68.80
2018-05-24T10:29:59.822Z,69.30
2018-05-24T10:32:29.584Z,69.10
2018-05-24T10:34:59.358Z,69.60
2018-05-24T10:37:29.129Z,69.60
2018-05-24T10:39:59.708Z,70.20
2018-05-24T10:42:29.506Z,70.20
2018-05-24T10:44:59.260Z,69.90
2018-05-24T10:47:29.078Z,70.30
2018-05-24T10:49:58.824Z,70.60
2018-05-24T10:52:28.589Z,70.50
2018-05-24T10:54:58.336Z,70.90
2018-05-24T10:57:28.108Z,71.40
2018-05-24T10:59:57.848Z,71.50
2018-05-24T11:02:28.381Z,72.30
2018-05-24T11:04:58.931Z,72.70
2018-05-24T11:07:28.716Z,72.60
2018-05-24T11:09:59.258Z,73.20
2018-05-24T11:12:29.024Z,73.20
2018-05-24T11:14:58.783Z,73.00
2018-05-24T11:17:28.580Z,73.30
2018-05-24T11:19:59.120Z,73.70
2018-05-24T11:22:28.868Z,73.70
2018-05-24T11:24:58.641Z,73.70
2018-05-24T11:27:28.420Z,73.70
2018-05-24T11:29:58.210Z,73.70
2018-05-24T11:32:27.972Z,73.90
2018-05-24T11:34:57.757Z,73.70
2018-05-24T11:37:28.321Z,73.70
2018-05-24T11:39:58.132Z,74.50
2018-05-24T11:42:27.876Z,73.80
2018-05-24T11:44:57.740Z,73.80
2018-05-24T11:47:28.269Z,74.10
2018-05-24T11:49:58.784Z,74.20
2018-05-24T11:52:28.564Z,74.10
2018-05-24T11:54:58.352Z,74.30
2018-05-24T11:57:28.110Z,74.60
2018-05-24T11:59:57.914Z,74.60
2018-05-24T12:02:27.679Z,74.50
2018-05-24T12:04:57.462Z,74.60
2018-05-24T12:07:28.888Z,74.60
2018-05-24T12:09:58.613Z,74.50
2018-05-24T12:12:29.140Z,74.50
2018-05-24T12:14:58.921Z,74.40
2018-05-24T12:17:28.751Z,74.60
2018-05-24T12:22:33.226Z,74.60
2018-05-24T12:25:03.004Z,74.90
2018-05-24T12:27:32.981Z,74.90
2018-05-24T12:30:02.767Z,75.30
2018-05-24T12:32:32.548Z,75.50
2018-05-24T12:35:02.313Z,75.80
2018-05-24T12:37:32.099Z,74.60
2018-05-24T12:40:01.863Z,71.90
2018-05-24T12:42:31.636Z,72.40
2018-05-24T12:45:01.456Z,70.60
2018-05-24T12:47:31.237Z,70.00
2018-05-24T12:50:01.770Z,70.30
2018-05-24T12:52:32.341Z,70.30
2018-05-24T12:55:02.109Z,70.70
2018-05-24T12:57:32.630Z,71.10
2018-05-24T13:00:03.169Z,71.20
2018-05-24T13:02:32.944Z,71.10
2018-05-24T13:05:02.721Z,71.30
2018-05-24T13:07:32.477Z,71.50
2018-05-24T13:10:02.261Z,71.30
2018-05-24T13:12:32.058Z,71.40
2018-05-24T13:15:01.852Z,71.50
2018-05-24T13:17:31.581Z,71.70
2018-05-24T13:20:01.452Z,72.10
2018-05-24T13:22:32.016Z,72.50
2018-05-24T13:25:01.773Z,72.50
2018-05-24T13:27:31.550Z,72.60
2018-05-24T13:30:01.323Z,73.00
2018-05-24T13:32:31.097Z,73.30
2018-05-24T13:35:00.920Z,73.50
2018-05-24T13:37:30.696Z,73.80
2018-05-24T13:40:00.454Z,74.00
2018-05-24T13:42:31.004Z,74.30
2018-05-24T13:45:00.770Z,74.30
2018-05-24T13:47:30.535Z,74.40
2018-05-24T13:50:00.370Z,74.40
2018-05-24T13:52:30.161Z,74.30
2018-05-24T13:54:59.931Z,74.30
2018-05-24T13:57:40.740Z,74.30
2018-05-24T14:00:10.507Z,74.30
2018-05-24T14:02:40.257Z,74.60
2018-05-24T14:05:10.073Z,74.90
2018-05-24T14:07:39.848Z,75.30
2018-05-24T14:10:09.650Z,75.40
2018-05-24T14:12:39.431Z,75.40
2018-05-24T14:15:09.186Z,75.60
2018-05-24T14:17:39.738Z,76.10
2018-05-24T14:20:09.521Z,76.10
2018-05-24T14:22:39.290Z,76.20
2018-05-24T14:25:09.073Z,76.20
2018-05-24T14:27:38.820Z,76.20
2018-05-24T14:30:08.648Z,76.20
2018-05-24T14:32:38.411Z,76.10
2018-05-24T14:35:08.956Z,76.70
2018-05-24T14:37:38.728Z,76.70
2018-05-24T14:40:09.271Z,77.50
2018-05-24T14:42:39.812Z,77.30
2018-05-24T14:45:09.609Z,77.30
2018-05-24T14:47:40.162Z,77.80
2018-05-24T14:50:09.961Z,77.70
2018-05-24T14:52:39.706Z,78.00
2018-05-24T14:55:09.477Z,78.10
2018-05-24T14:57:40.169Z,78.10
2018-05-24T15:00:09.967Z,78.10
2018-05-24T15:02:39.766Z,78.00
2018-05-24T15:05:09.580Z,78.00
2018-05-24T15:07:39.339Z,78.40
2018-05-24T15:10:09.915Z,78.50
2018-05-24T15:12:39.720Z,78.50
2018-05-24T15:15:09.554Z,78.50
2018-05-24T15:17:39.359Z,78.50
2018-05-24T15:20:09.181Z,78.40
2018-05-24T15:22:38.998Z,78.40
2018-05-24T15:25:08.781Z,78.90
2018-05-24T15:27:38.689Z,78.00
2018-05-24T15:30:08.451Z,77.70
2018-05-24T15:32:38.228Z,77.80
2018-05-24T15:35:08.009Z,77.90
2018-05-24T15:37:37.826Z,77.70
2018-05-24T15:40:07.596Z,77.80
2018-05-24T15:45:12.663Z,78.00
2018-05-24T15:47:43.276Z,77.50
2018-05-24T15:50:13.024Z,77.50
2018-05-24T15:52:42.806Z,77.50
2018-05-24T15:55:12.591Z,77.50
2018-05-24T15:57:42.355Z,77.60
2018-05-24T16:00:12.113Z,77.90
2018-05-24T16:02:41.877Z,78.20
2018-05-24T16:05:11.659Z,78.10
2018-05-24T16:07:42.288Z,78.00
2018-05-24T16:10:12.069Z,77.90
2018-05-24T16:12:41.838Z,77.70
2018-05-24T16:15:12.389Z,77.20
2018-05-24T16:17:42.162Z,78.00
2018-05-24T16:20:12.765Z,76.80
2018-05-24T16:22:42.760Z,76.80
2018-05-24T16:25:12.733Z,76.20
2018-05-24T16:27:43.283Z,75.90
2018-05-24T16:30:13.051Z,75.90
2018-05-24T16:32:43.156Z,75.90
2018-05-24T16:35:12.940Z,75.60
2018-05-24T16:37:42.729Z,75.60
2018-05-24T16:40:12.477Z,75.30
2018-05-24T16:42:42.258Z,76.00
2018-05-24T16:45:12.041Z,75.50
2018-05-24T16:47:41.828Z,76.30
2018-05-24T16:50:11.626Z,75.90
2018-05-24T16:52:41.417Z,75.80
2018-05-24T16:55:11.242Z,75.90
2018-05-24T16:57:41.038Z,76.30
2018-05-24T17:00:10.823Z,76.20
2018-05-24T17:02:41.362Z,76.70
2018-05-24T17:05:11.120Z,76.70
2018-05-24T17:07:40.877Z,76.90
2018-05-24T17:10:11.428Z,76.10
2018-05-24T17:12:41.192Z,76.00
2018-05-24T17:15:10.948Z,75.70
2018-05-24T17:17:40.737Z,76.00
2018-05-24T17:20:11.269Z,76.60
2018-05-24T17:22:41.820Z,76.70
2018-05-24T17:25:11.580Z,76.70
2018-05-24T17:27:41.357Z,76.70
2018-05-24T17:30:11.137Z,76.50
2018-05-24T17:32:40.931Z,76.50
2018-05-24T17:35:11.473Z,76.70
2018-05-24T17:37:41.240Z,76.70
2018-05-24T17:40:10.996Z,76.80
2018-05-24T17:42:41.551Z,77.30
2018-05-24T17:45:11.271Z,77.20
2018-05-24T17:47:41.050Z,77.10
2018-05-24T17:50:10.825Z,77.40
2018-05-24T17:52:40.597Z,77.70
2018-05-24T17:55:10.365Z,77.50
2018-05-24T17:57:40.915Z,77.30
2018-05-24T18:00:10.717Z,77.30
2018-05-24T18:02:41.239Z,77.30
2018-05-24T18:05:11.763Z,77.00
2018-05-24T18:07:42.324Z,76.90
2018-05-24T18:10:14.521Z,76.80
2018-05-24T18:12:45.395Z,77.30
2018-05-24T18:15:15.192Z,77.30
2018-05-24T18:17:45.062Z,77.20
2018-05-24T18:20:14.858Z,77.10
2018-05-24T18:22:44.608Z,77.60
2018-05-24T18:25:14.405Z,77.50
2018-05-24T18:27:44.202Z,77.30
2018-05-24T18:30:13.973Z,76.70
2018-05-24T18:32:44.514Z,77.30
2018-05-24T18:35:15.065Z,77.10
2018-05-24T18:37:44.828Z,77.10
2018-05-24T18:40:15.454Z,77.00
2018-05-24T18:42:45.279Z,77.30
2018-05-24T18:45:15.849Z,76.80
2018-05-24T18:47:45.618Z,76.80
2018-05-24T18:50:15.418Z,76.60
2018-05-24T18:52:45.207Z,76.60
2018-05-24T18:55:14.969Z,76.70
2018-05-24T18:57:45.513Z,76.50
2018-05-24T19:00:15.273Z,76.50
2018-05-24T19:02:45.037Z,76.50
2018-05-24T19:05:14.812Z,76.60
2018-05-24T19:07:44.585Z,76.60
2018-05-24T19:10:14.342Z,76.60
2018-05-24T19:12:44.104Z,76.70
2018-05-24T19:15:13.874Z,77.00
2018-05-24T19:17:44.392Z,77.30
2018-05-24T19:20:14.158Z,77.30
2018-05-24T19:22:43.896Z,77.50
2018-05-24T19:25:13.676Z,77.90
2018-05-24T19:27:44.204Z,78.30
2018-05-24T19:30:13.977Z,78.30
2018-05-24T19:32:44.496Z,78.50
2018-05-24T19:35:15.014Z,78.50
2018-05-24T19:37:44.773Z,78.50
2018-05-24T19:40:14.549Z,78.60
2018-05-24T19:42:45.102Z,79.00
2018-05-24T19:45:14.857Z,78.90
2018-05-24T19:47:44.637Z,79.10
2018-05-24T19:50:14.417Z,79.20
2018-05-24T19:52:44.969Z,79.40
2018-05-24T19:55:14.772Z,79.40
2018-05-24T19:57:45.320Z,80.00
2018-05-24T20:00:15.094Z,79.90
2018-05-24T20:02:45.646Z,79.90
2018-05-24T20:05:15.412Z,79.90
2018-05-24T20:07:45.161Z,80.00
2018-05-24T20:10:15.692Z,79.60
2018-05-24T20:12:46.221Z,79.60
2018-05-24T20:15:16.736Z,79.50
2018-05-24T20:17:47.277Z,79.30
2018-05-24T20:20:17.796Z,78.60
2018-05-24T20:22:48.339Z,78.40
2018-05-24T20:25:18.172Z,78.30
2018-05-24T20:27:47.936Z,78.60
2018-05-24T20:30:17.687Z,78.60
2018-05-24T20:32:47.452Z,79.00
2018-05-24T20:35:17.230Z,79.30
2018-05-24T20:37:47.000Z,79.50
2018-05-24T20:40:17.525Z,80.00
2018-05-24T20:42:48.087Z,80.10
2018-05-24T20:45:17.860Z,80.10
2018-05-24T20:47:48.413Z,79.30
2018-05-24T20:50:18.219Z,79.20
2018-05-24T20:52:47.957Z,79.10
2018-05-24T20:55:17.724Z,79.10
2018-05-24T20:57:48.253Z,79.40
2018-05-24T21:00:18.799Z,79.30
2018-05-24T21:02:48.548Z,79.30
2018-05-24T21:05:18.333Z,79.10
2018-05-24T21:07:48.131Z,79.00
2018-05-24T21:10:17.926Z,79.00
2018-05-24T21:12:48.464Z,78.40
2018-05-24T21:15:18.952Z,78.10
2018-05-24T21:17:48.704Z,78.10
2018-05-24T21:20:19.264Z,78.90
2018-05-24T21:22:49.035Z,78.80
2018-05-24T21:25:19.585Z,79.10
2018-05-24T21:27:49.313Z,79.10
2018-05-24T21:30:19.070Z,79.10
2018-05-24T21:32:48.820Z,79.00
2018-05-24T21:35:18.641Z,78.90
2018-05-24T21:37:48.437Z,78.70
2018-05-24T21:40:18.201Z,78.60
2018-05-24T21:42:47.976Z,78.50
2018-05-24T21:45:17.721Z,78.40
2018-05-24T21:47:47.478Z,78.80
2018-05-24T21:50:17.277Z,79.30
2018-05-24T21:52:47.814Z,79.80
2018-05-24T21:55:17.562Z,79.80
2018-05-24T21:57:47.336Z,79.60
2018-05-24T22:00:17.857Z,79.70
2018-05-24T22:02:47.660Z,79.70
2018-05-24T22:05:18.199Z,79.30
2018-05-24T22:07:48.765Z,79.20
2018-05-24T22:10:18.512Z,79.10
2018-05-24T22:12:48.344Z,79.30
2018-05-24T22:15:19.676Z,79.70
2018-05-24T22:17:49.481Z,79.60
2018-05-24T22:20:19.227Z,79.40
2018-05-24T22:22:49.737Z,79.40
2018-05-24T22:25:20.286Z,79.20
2018-05-24T22:27:50.818Z,79.70
2018-05-24T22:30:21.340Z,80.30
2018-05-24T22:32:51.924Z,80.30
2018-05-24T22:35:21.640Z,80.30
2018-05-24T22:37:51.419Z,80.50
2018-05-24T22:40:21.169Z,80.40
2018-05-24T22:42:50.940Z,80.30
2018-05-24T22:45:20.719Z,80.40
2018-05-24T22:47:51.249Z,80.30
2018-05-24T22:50:21.781Z,81.10
2018-05-24T22:52:52.287Z,80.30
2018-05-24T22:55:22.829Z,80.40
2018-05-24T22:57:53.373Z,80.10
2018-05-24T23:00:23.188Z,80.00
2018-05-24T23:02:53.020Z,80.20
2018-05-24T23:05:23.122Z,80.40
2018-05-24T23:07:52.869Z,80.50
2018-05-24T23:10:22.637Z,80.60
2018-05-24T23:12:53.175Z,81.00
2018-05-24T23:15:22.972Z,81.00
2018-05-24T23:17:53.504Z,80.60
2018-05-24T23:20:23.268Z,80.60
2018-05-24T23:22:53.026Z,80.60
2018-05-24T23:25:24.299Z,80.50
2018-05-24T23:27:54.049Z,80.40
2018-05-24T23:30:23.804Z,80.40
2018-05-24T23:32:53.571Z,80.30
2018-05-24T23:35:23.348Z,80.10
2018-05-24T23:37:53.111Z,79.90
2018-05-24T23:40:23.664Z,79.30
2018-05-24T23:42:54.654Z,79.20
2018-05-24T23:45:24.399Z,78.90
2018-05-24T23:47:54.908Z,77.90
2018-05-24T23:50:24.721Z,77.80
2018-05-24T23:52:54.571Z,77.60
2018-05-24T23:55:24.348Z,77.50
2018-05-24T23:57:54.104Z,77.10
